EBLG/LGG METAR and TAF weather

Enter ICAO airport designator
Station Type Date Time Source
EBLG METAR 2019/08/25 13:50 UTC NOAA

EBLG 251350Z 23004KT 160V280 CAVOK 29/11 Q1019 NOSIG


Station Type Date Time Source
EBLG Decoded METAR 2019/08/25 13:50 UTC NOAA

Station name not available
Aug 25, 2019 - 09:50 AM EDT / 2019.08.25 1350 UTC
Wind: from the SW (230 degrees) at 5 MPH (4 KT) (direction variable):0
Visibility: greater than 7 mile(s):0
Temperature: 84 F (29 C)
Dew Point: 51 F (11 C)
Relative Humidity: 32%
Pressure (altimeter): 30.09 in. Hg (1019 hPa)
ob: EBLG 251350Z 23004KT 160V280 CAVOK 29/11 Q1019 NOSIG
cycle: 14

Station Type Date Time Source
EBLG TAF 2019/08/25 12:31 UTC NOAA

TAF EBLG 251115Z 2512/2618 VRB03KT CAVOK

Example: see airport list